createdAt,value
2023-05-19T00:02:26.056Z,70.83
2023-05-19T00:04:53.233Z,70.81
2023-05-19T00:07:21.898Z,71.01
2023-05-19T00:09:48.907Z,70.46
2023-05-19T00:12:16.032Z,69.21
2023-05-19T00:14:42.882Z,69.75
2023-05-19T00:17:09.934Z,69.16
2023-05-19T00:19:38.135Z,69.45
2023-05-19T00:22:05.351Z,69.28
2023-05-19T00:24:33.047Z,69.81
2023-05-19T00:26:59.714Z,69.93
2023-05-19T00:29:26.610Z,70.11
2023-05-19T00:31:53.443Z,69.92
2023-05-19T00:34:20.267Z,69.49
2023-05-19T00:36:47.084Z,69.00
2023-05-19T00:39:14.262Z,69.81
2023-05-19T00:41:41.503Z,67.44
2023-05-19T00:44:08.223Z,66.60
2023-05-19T00:46:35.180Z,67.97
2023-05-19T00:49:01.859Z,67.10
2023-05-19T00:51:29.674Z,68.38
2023-05-19T00:53:57.815Z,68.29
2023-05-19T00:56:24.999Z,64.90
2023-05-19T00:58:52.077Z,66.62
2023-05-19T01:01:21.313Z,66.93
2023-05-19T01:03:48.388Z,66.96
2023-05-19T01:06:15.501Z,67.61
2023-05-19T01:08:42.288Z,67.29
2023-05-19T01:11:10.331Z,67.40
2023-05-19T01:13:38.182Z,69.43
2023-05-19T01:16:22.363Z,69.55
2023-05-19T01:18:56.214Z,70.39
2023-05-19T01:21:45.729Z,70.70
2023-05-19T01:24:12.528Z,70.56
2023-05-19T01:27:00.686Z,71.31
2023-05-19T01:29:36.335Z,71.18
2023-05-19T01:32:04.404Z,71.25
2023-05-19T01:34:31.403Z,71.91
2023-05-19T01:36:58.938Z,72.10
2023-05-19T01:39:25.880Z,71.91
2023-05-19T01:41:53.390Z,72.17
2023-05-19T01:44:22.177Z,72.47
2023-05-19T01:46:49.985Z,72.34
2023-05-19T01:49:16.755Z,73.14
2023-05-19T01:51:44.741Z,72.93
2023-05-19T01:54:11.541Z,73.27
2023-05-19T01:56:54.573Z,73.69
2023-05-19T01:59:44.410Z,73.66
2023-05-19T02:02:40.542Z,73.70
2023-05-19T02:05:14.730Z,73.86
2023-05-19T02:07:50.944Z,74.03
2023-05-19T02:10:28.196Z,73.82
2023-05-19T02:12:59.827Z,73.68
2023-05-19T02:15:30.468Z,73.95
2023-05-19T02:17:57.238Z,74.48
2023-05-19T02:20:23.942Z,74.43
2023-05-19T02:22:50.737Z,74.25
2023-05-19T02:25:18.319Z,74.01
2023-05-19T02:27:45.076Z,74.20
2023-05-19T02:30:11.898Z,74.13
2023-05-19T02:32:38.797Z,73.96
2023-05-19T02:35:06.062Z,74.01
2023-05-19T02:37:33.243Z,74.13
2023-05-19T02:39:59.847Z,74.27
2023-05-19T02:42:26.676Z,74.05
2023-05-19T02:44:54.860Z,74.03
2023-05-19T02:47:21.800Z,74.26
2023-05-19T02:49:48.523Z,74.22
2023-05-19T02:52:15.651Z,74.89
2023-05-19T02:54:42.637Z,75.14
2023-05-19T02:57:09.495Z,74.91
2023-05-19T02:59:36.729Z,74.62
2023-05-19T03:02:03.564Z,74.89
2023-05-19T03:04:30.362Z,75.12
2023-05-19T03:06:59.960Z,75.36
2023-05-19T03:09:26.634Z,75.19
2023-05-19T03:11:53.420Z,75.58
2023-05-19T03:14:24.035Z,75.46
2023-05-19T03:16:51.454Z,75.87
2023-05-19T03:19:18.362Z,75.52
2023-05-19T03:21:45.249Z,76.26
2023-05-19T03:24:11.955Z,76.37
2023-05-19T03:26:38.721Z,76.36
2023-05-19T03:29:06.012Z,76.50
2023-05-19T03:31:35.368Z,76.96
2023-05-19T03:34:03.215Z,77.05
2023-05-19T03:36:32.859Z,77.14
2023-05-19T03:39:00.410Z,77.04
2023-05-19T03:41:27.402Z,76.69
2023-05-19T03:43:54.084Z,77.29
2023-05-19T03:46:21.145Z,76.99
2023-05-19T03:49:06.665Z,77.50
2023-05-19T03:51:52.042Z,77.17
2023-05-19T03:54:32.297Z,77.43
2023-05-19T03:56:59.087Z,77.51
2023-05-19T03:59:25.932Z,77.44
2023-05-19T04:01:52.929Z,77.54
2023-05-19T04:04:19.766Z,77.57
2023-05-19T04:06:46.788Z,77.55
2023-05-19T04:09:15.871Z,77.72
2023-05-19T04:11:43.036Z,77.47
2023-05-19T04:14:09.774Z,77.67
2023-05-19T04:16:36.910Z,77.87
2023-05-19T04:19:03.717Z,77.75
2023-05-19T04:21:30.659Z,77.37
2023-05-19T04:23:59.217Z,77.56
2023-05-19T04:26:26.899Z,77.56
2023-05-19T04:28:56.588Z,77.52
2023-05-19T04:31:24.240Z,76.88
2023-05-19T04:33:53.430Z,76.78
2023-05-19T04:36:21.752Z,76.53
2023-05-19T04:38:54.906Z,76.57
2023-05-19T04:41:24.279Z,76.26
2023-05-19T04:43:51.432Z,76.55
2023-05-19T04:46:24.375Z,76.14
2023-05-19T04:48:55.315Z,76.24
2023-05-19T04:51:22.260Z,75.88
2023-05-19T04:53:49.183Z,75.63
2023-05-19T04:56:16.638Z,75.84
2023-05-19T04:58:45.011Z,75.28
2023-05-19T05:01:13.878Z,75.47
2023-05-19T05:03:40.909Z,75.96
2023-05-19T05:06:08.024Z,75.66
2023-05-19T05:08:35.141Z,75.40
2023-05-19T05:11:02.115Z,74.99
2023-05-19T05:13:29.179Z,75.18
2023-05-19T05:15:58.579Z,75.06
2023-05-19T05:18:26.370Z,74.62
2023-05-19T05:20:53.521Z,74.58
2023-05-19T05:23:20.547Z,73.55
2023-05-19T05:25:49.206Z,73.15
2023-05-19T05:28:16.894Z,72.31
2023-05-19T05:30:45.037Z,71.89
2023-05-19T05:33:14.212Z,70.46
2023-05-19T05:35:41.713Z,70.03
2023-05-19T05:38:11.602Z,69.64
2023-05-19T05:40:39.722Z,69.56
2023-05-19T05:43:07.630Z,68.87
2023-05-19T05:45:39.719Z,68.45
2023-05-19T05:48:07.057Z,68.26
2023-05-19T05:50:34.270Z,68.06
2023-05-19T05:53:03.836Z,67.05
2023-05-19T05:55:31.063Z,66.99
2023-05-19T05:58:02.126Z,65.85
2023-05-19T06:00:29.991Z,65.17
2023-05-19T06:02:57.382Z,65.17
2023-05-19T06:05:26.160Z,64.30
2023-05-19T06:07:54.281Z,64.38
2023-05-19T06:10:25.075Z,63.59
2023-05-19T06:12:53.375Z,62.99
2023-05-19T06:15:22.181Z,63.31
2023-05-19T06:18:00.915Z,63.09
2023-05-19T06:20:28.095Z,61.97
2023-05-19T06:22:56.364Z,60.82
2023-05-19T06:25:26.068Z,61.45
2023-05-19T06:27:53.211Z,60.87
2023-05-19T06:30:21.321Z,59.84
2023-05-19T06:32:57.589Z,58.38
2023-05-19T06:35:25.539Z,58.23
2023-05-19T06:37:53.119Z,57.96
2023-05-19T06:40:20.777Z,57.91
2023-05-19T06:42:47.614Z,57.80
2023-05-19T06:45:40.721Z,57.66
2023-05-19T06:48:07.749Z,57.54
2023-05-19T06:50:35.092Z,56.88
2023-05-19T06:53:02.103Z,56.82
2023-05-19T06:55:29.261Z,57.20
2023-05-19T06:57:56.156Z,55.53
2023-05-19T07:00:23.997Z,55.00
2023-05-19T07:02:53.273Z,55.08
2023-05-19T07:05:21.810Z,55.63
2023-05-19T07:07:53.106Z,55.02
2023-05-19T07:10:24.038Z,55.51
2023-05-19T07:12:51.685Z,56.08
2023-05-19T07:15:20.633Z,55.09
2023-05-19T07:17:48.097Z,54.72
2023-05-19T07:20:15.044Z,55.31
2023-05-19T07:22:41.669Z,54.44
2023-05-19T07:25:09.311Z,54.33
2023-05-19T07:27:37.064Z,55.30
2023-05-19T07:30:04.207Z,55.54
2023-05-19T07:32:30.879Z,54.84
2023-05-19T07:34:57.792Z,53.85
2023-05-19T07:37:24.509Z,53.54
2023-05-19T07:39:51.256Z,55.37
2023-05-19T07:42:17.975Z,53.75
2023-05-19T07:44:44.668Z,53.67
2023-05-19T07:47:11.380Z,53.87
2023-05-19T07:49:38.338Z,52.74
2023-05-19T07:52:05.157Z,53.24
2023-05-19T07:54:31.909Z,52.37
2023-05-19T07:56:58.585Z,51.81
2023-05-19T07:59:25.373Z,52.44
2023-05-19T08:01:52.141Z,51.94
2023-05-19T08:04:19.040Z,52.00
2023-05-19T08:06:46.007Z,52.13
2023-05-19T08:09:12.820Z,52.72
2023-05-19T08:11:39.476Z,52.40
2023-05-19T08:14:06.304Z,51.93
2023-05-19T08:16:32.951Z,51.85
2023-05-19T08:19:02.732Z,52.22
2023-05-19T08:21:29.596Z,51.74
2023-05-19T08:23:57.150Z,54.03
2023-05-19T08:26:23.955Z,50.34
2023-05-19T08:28:50.677Z,52.95
2023-05-19T08:31:18.556Z,50.96
2023-05-19T08:33:45.697Z,52.45
2023-05-19T08:36:12.454Z,50.69
2023-05-19T08:38:39.150Z,50.64
2023-05-19T08:41:06.237Z,50.90
2023-05-19T08:43:32.878Z,51.90
2023-05-19T08:46:00.708Z,50.21
2023-05-19T08:48:31.203Z,51.96
2023-05-19T08:51:19.649Z,50.91
2023-05-19T08:53:50.700Z,48.73
2023-05-19T08:56:22.712Z,47.43
2023-05-19T08:58:50.870Z,47.84
2023-05-19T09:01:18.092Z,46.94
2023-05-19T09:03:46.416Z,45.43
2023-05-19T09:06:13.551Z,45.23
2023-05-19T09:08:41.477Z,46.29
2023-05-19T09:11:09.684Z,44.78
2023-05-19T09:13:36.605Z,46.27
2023-05-19T09:16:03.709Z,47.01
2023-05-19T09:18:30.794Z,45.74
2023-05-19T09:21:02.424Z,45.95
2023-05-19T09:23:30.849Z,45.76
2023-05-19T09:25:57.682Z,45.22
2023-05-19T09:28:25.399Z,44.29
2023-05-19T09:31:11.233Z,42.79
2023-05-19T09:33:45.512Z,44.29
2023-05-19T09:36:12.818Z,44.23
2023-05-19T09:38:39.904Z,43.66
2023-05-19T09:41:08.036Z,44.13
2023-05-19T09:43:35.014Z,44.45
2023-05-19T09:46:10.530Z,44.44
2023-05-19T09:48:38.709Z,43.64
2023-05-19T09:51:08.051Z,44.02
2023-05-19T09:53:35.158Z,44.31
2023-05-19T09:56:03.316Z,44.76
2023-05-19T09:58:37.148Z,43.69
2023-05-19T10:01:04.673Z,44.91
2023-05-19T10:03:33.038Z,44.81
2023-05-19T10:06:01.455Z,43.87
2023-05-19T10:08:30.469Z,44.74
2023-05-19T10:10:57.637Z,43.22
2023-05-19T10:13:24.470Z,43.90
2023-05-19T10:18:23.086Z,44.34
2023-05-19T10:20:50.255Z,44.06
2023-05-19T10:23:17.155Z,45.18
2023-05-19T10:25:44.288Z,43.62
2023-05-19T10:28:17.395Z,43.90
2023-05-19T10:30:49.765Z,44.28
2023-05-19T10:33:18.152Z,44.17
2023-05-19T10:36:11.761Z,43.52
2023-05-19T10:39:01.085Z,43.55
2023-05-19T10:41:51.061Z,42.27
2023-05-19T10:44:48.778Z,44.69
2023-05-19T10:47:16.219Z,44.40
2023-05-19T10:49:42.925Z,43.62
2023-05-19T10:52:23.474Z,44.31
2023-05-19T10:54:51.409Z,44.45
2023-05-19T10:57:18.256Z,44.96
2023-05-19T10:59:44.990Z,44.17
2023-05-19T11:02:41.296Z,43.32
2023-05-19T11:05:18.378Z,43.14
2023-05-19T11:08:04.553Z,43.65
2023-05-19T11:10:31.435Z,43.56
2023-05-19T11:12:58.413Z,43.99
2023-05-19T11:15:28.324Z,44.20
2023-05-19T11:17:55.301Z,44.59
2023-05-19T11:20:26.004Z,44.66
2023-05-19T11:23:09.756Z,44.76
2023-05-19T11:25:44.761Z,44.76
2023-05-19T11:28:14.628Z,44.87
2023-05-19T11:30:43.142Z,45.13
2023-05-19T11:33:10.112Z,45.03
2023-05-19T11:35:37.540Z,45.58
2023-05-19T11:38:05.727Z,45.74
2023-05-19T11:40:33.147Z,44.65
2023-05-19T11:43:01.896Z,46.17
2023-05-19T11:45:29.829Z,46.63
2023-05-19T11:48:02.549Z,46.17
2023-05-19T11:50:31.393Z,46.20
2023-05-19T11:53:00.118Z,46.37
2023-05-19T11:55:27.321Z,46.76
2023-05-19T11:58:04.742Z,46.08
2023-05-19T12:00:39.974Z,46.97
2023-05-19T12:03:08.169Z,45.62
2023-05-19T12:05:41.948Z,47.16
2023-05-19T12:08:10.244Z,46.39
2023-05-19T12:10:38.705Z,46.92
2023-05-19T12:13:08.084Z,47.34
2023-05-19T12:15:35.245Z,46.89
2023-05-19T12:18:02.701Z,45.92
2023-05-19T12:20:32.422Z,46.60
2023-05-19T12:23:00.541Z,46.63
2023-05-19T12:25:28.589Z,45.77
2023-05-19T12:27:59.730Z,46.19
2023-05-19T12:30:27.913Z,46.36
2023-05-19T12:32:57.540Z,46.54
2023-05-19T12:35:33.275Z,47.45
2023-05-19T12:38:04.744Z,47.37
2023-05-19T12:40:33.044Z,47.28
2023-05-19T12:43:00.057Z,46.79
2023-05-19T12:45:29.760Z,46.72
2023-05-19T12:47:56.715Z,47.76
2023-05-19T12:50:30.415Z,47.69
2023-05-19T12:52:59.624Z,47.24
2023-05-19T12:55:26.348Z,47.94
2023-05-19T12:57:56.841Z,46.86
2023-05-19T13:00:32.822Z,46.43
2023-05-19T13:03:01.585Z,47.17
2023-05-19T13:05:29.956Z,47.53
2023-05-19T13:07:58.330Z,47.87
2023-05-19T13:10:27.246Z,47.54
2023-05-19T13:12:58.069Z,46.40
2023-05-19T13:15:26.430Z,47.26
2023-05-19T13:17:53.877Z,47.37
2023-05-19T13:20:21.818Z,47.34
2023-05-19T13:22:48.917Z,46.91
2023-05-19T13:25:16.304Z,46.87
2023-05-19T13:27:46.038Z,47.16
2023-05-19T13:30:12.897Z,46.67
2023-05-19T13:32:39.598Z,47.40
2023-05-19T13:35:06.836Z,47.42
2023-05-19T13:37:33.606Z,46.47
2023-05-19T13:40:00.542Z,47.26
2023-05-19T13:42:27.347Z,47.69
2023-05-19T13:44:57.197Z,47.48
2023-05-19T13:47:24.103Z,46.46
2023-05-19T13:49:51.422Z,47.14
2023-05-19T13:52:18.779Z,46.56
2023-05-19T13:54:45.541Z,47.48
2023-05-19T13:57:12.407Z,47.55
2023-05-19T13:59:48.937Z,47.39
2023-05-19T14:02:24.342Z,47.96
2023-05-19T14:04:51.146Z,48.18
2023-05-19T14:07:17.919Z,47.87
2023-05-19T14:09:44.606Z,47.68
2023-05-19T14:12:12.234Z,48.23
2023-05-19T14:14:38.892Z,47.84
2023-05-19T14:17:05.626Z,46.90
2023-05-19T14:19:32.234Z,47.01
2023-05-19T14:21:59.021Z,47.56
2023-05-19T14:24:26.066Z,47.32
2023-05-19T14:26:53.310Z,47.08
2023-05-19T14:29:19.923Z,46.99
2023-05-19T14:31:46.963Z,47.34
2023-05-19T14:34:17.803Z,46.30
2023-05-19T14:36:44.728Z,47.51
2023-05-19T14:39:11.993Z,46.56
2023-05-19T14:41:38.692Z,46.86
2023-05-19T14:44:05.882Z,46.44
2023-05-19T14:46:32.677Z,47.08
2023-05-19T14:48:59.356Z,46.21
2023-05-19T14:51:26.040Z,46.15
2023-05-19T14:53:52.701Z,46.51
2023-05-19T14:56:19.431Z,46.11
2023-05-19T14:58:46.132Z,45.17
2023-05-19T15:01:13.056Z,45.83
2023-05-19T15:03:39.742Z,44.29
2023-05-19T15:06:10.781Z,43.53
2023-05-19T15:08:39.263Z,42.70
2023-05-19T15:11:05.910Z,41.89
2023-05-19T15:13:32.666Z,41.86
2023-05-19T15:16:15.403Z,41.48
2023-05-19T15:18:43.594Z,42.84
2023-05-19T15:21:10.399Z,43.48
2023-05-19T15:23:37.108Z,43.56
2023-05-19T15:26:03.898Z,44.80
2023-05-19T15:28:30.995Z,45.06
2023-05-19T15:30:57.768Z,44.68
2023-05-19T15:33:24.610Z,44.43
2023-05-19T15:35:52.341Z,42.18
2023-05-19T15:38:22.109Z,40.37
2023-05-19T15:40:48.985Z,37.84
2023-05-19T15:43:15.732Z,36.65
2023-05-19T15:45:42.497Z,35.83
2023-05-19T15:48:09.197Z,33.30
2023-05-19T15:50:36.458Z,31.81
2023-05-19T15:53:03.541Z,31.38
2023-05-19T15:55:30.459Z,31.27
2023-05-19T15:57:57.132Z,31.18
2023-05-19T16:00:23.922Z,30.00
2023-05-19T16:02:50.695Z,28.20
2023-05-19T16:05:17.960Z,31.10
2023-05-19T16:07:45.055Z,30.94
2023-05-19T16:10:11.946Z,32.23
2023-05-19T16:12:38.645Z,32.99
2023-05-19T16:15:05.865Z,35.98
2023-05-19T16:17:32.712Z,37.72
2023-05-19T16:19:59.410Z,36.36
2023-05-19T16:22:26.217Z,37.86
2023-05-19T16:24:53.070Z,35.54
2023-05-19T16:27:19.755Z,34.24
2023-05-19T16:29:46.427Z,33.75
2023-05-19T16:32:13.155Z,35.04
2023-05-19T16:34:39.958Z,34.42
2023-05-19T16:37:06.692Z,34.46
2023-05-19T16:39:37.023Z,33.27
2023-05-19T16:42:04.688Z,34.50
2023-05-19T16:44:31.441Z,35.18
2023-05-19T16:46:58.237Z,37.44
2023-05-19T16:49:24.966Z,39.60
2023-05-19T16:51:53.120Z,39.58
2023-05-19T16:54:20.892Z,41.00
2023-05-19T16:56:47.620Z,41.66
2023-05-19T16:59:14.371Z,42.71
2023-05-19T17:01:41.337Z,43.46
2023-05-19T17:04:08.251Z,43.77
2023-05-19T17:06:35.093Z,44.00
2023-05-19T17:09:02.180Z,44.06
2023-05-19T17:11:28.914Z,44.46
2023-05-19T17:13:55.610Z,44.54
2023-05-19T17:16:23.544Z,44.51
2023-05-19T17:18:50.386Z,43.59
2023-05-19T17:21:17.763Z,44.62
2023-05-19T17:23:44.589Z,43.78
2023-05-19T17:26:11.535Z,41.66
2023-05-19T17:28:38.200Z,40.05
2023-05-19T17:31:12.344Z,38.01
2023-05-19T17:33:39.147Z,37.13
2023-05-19T17:36:06.425Z,38.05
2023-05-19T17:38:33.290Z,38.00
2023-05-19T17:41:04.559Z,38.33
2023-05-19T17:43:31.415Z,38.21
2023-05-19T17:46:00.928Z,37.72
2023-05-19T17:48:27.960Z,38.37
2023-05-19T17:50:54.699Z,39.01
2023-05-19T17:53:21.796Z,39.88
2023-05-19T17:55:53.518Z,41.78
2023-05-19T17:58:20.813Z,42.72
2023-05-19T18:00:47.513Z,44.45
2023-05-19T18:03:14.585Z,44.19
2023-05-19T18:05:43.342Z,44.73
2023-05-19T18:08:11.022Z,45.28
2023-05-19T18:10:38.608Z,46.20
2023-05-19T18:13:06.327Z,46.50
2023-05-19T18:15:33.330Z,46.60
2023-05-19T18:18:00.238Z,47.01
2023-05-19T18:20:27.128Z,47.03
2023-05-19T18:22:53.757Z,47.96
2023-05-19T18:25:20.902Z,48.90
2023-05-19T18:27:47.727Z,48.57
2023-05-19T18:30:14.575Z,48.67
2023-05-19T18:32:41.378Z,49.24
2023-05-19T18:35:08.972Z,49.45
2023-05-19T18:37:35.765Z,49.63
2023-05-19T18:40:02.541Z,50.13
2023-05-19T18:42:29.363Z,50.85
2023-05-19T18:44:56.068Z,50.72
2023-05-19T18:47:25.729Z,51.28
2023-05-19T18:49:52.458Z,52.49
2023-05-19T18:52:19.877Z,52.27
2023-05-19T18:54:47.292Z,53.27
2023-05-19T18:57:14.873Z,54.59
2023-05-19T18:59:41.737Z,55.31
2023-05-19T19:02:08.448Z,57.75
2023-05-19T19:04:35.405Z,56.29
2023-05-19T19:07:02.271Z,56.77
2023-05-19T19:09:29.012Z,57.08
2023-05-19T19:11:55.843Z,58.96
2023-05-19T19:14:22.598Z,59.13
2023-05-19T19:16:49.332Z,59.23
2023-05-19T19:19:16.199Z,61.26
2023-05-19T19:21:43.136Z,60.82
2023-05-19T19:24:09.901Z,61.30
2023-05-19T19:26:38.034Z,61.96
2023-05-19T19:29:04.805Z,63.27
2023-05-19T19:31:33.222Z,63.62
2023-05-19T19:34:03.718Z,63.64
2023-05-19T19:36:31.868Z,64.11
2023-05-19T19:38:58.758Z,63.38
2023-05-19T19:41:26.638Z,64.34
2023-05-19T19:43:53.396Z,64.52
2023-05-19T19:46:20.056Z,64.56
2023-05-19T19:48:46.821Z,65.08
2023-05-19T19:51:13.502Z,65.00
2023-05-19T19:53:40.280Z,65.11
2023-05-19T19:56:07.304Z,66.39
2023-05-19T19:58:33.992Z,66.36
2023-05-19T20:01:03.105Z,66.06
2023-05-19T20:03:30.174Z,66.21
2023-05-19T20:05:57.094Z,66.17
2023-05-19T20:08:24.855Z,67.14
2023-05-19T20:10:51.665Z,66.40
2023-05-19T20:13:19.002Z,67.10
2023-05-19T20:15:46.739Z,66.18
2023-05-19T20:18:13.698Z,66.66
2023-05-19T20:20:40.531Z,66.08
2023-05-19T20:23:10.413Z,66.04
2023-05-19T20:25:57.873Z,66.43
2023-05-19T20:28:29.683Z,66.79
2023-05-19T20:30:56.432Z,66.73
2023-05-19T20:33:23.156Z,67.22
2023-05-19T20:35:49.802Z,67.00
2023-05-19T20:38:16.637Z,66.81
2023-05-19T20:40:43.389Z,66.51
2023-05-19T20:43:10.197Z,66.70
2023-05-19T20:45:37.114Z,67.41
2023-05-19T20:48:04.651Z,67.50
2023-05-19T20:50:31.938Z,67.62
2023-05-19T20:52:58.908Z,67.66
2023-05-19T20:55:25.550Z,68.48
2023-05-19T20:57:52.241Z,68.58
2023-05-19T21:00:18.971Z,69.53
2023-05-19T21:02:45.780Z,69.36
2023-05-19T21:05:12.517Z,68.96
2023-05-19T21:07:39.271Z,69.31
2023-05-19T21:10:06.580Z,69.00
2023-05-19T21:12:34.342Z,69.24
2023-05-19T21:15:01.907Z,70.01
2023-05-19T21:17:28.706Z,69.70
2023-05-19T21:19:58.080Z,69.58
2023-05-19T21:22:26.461Z,70.45
2023-05-19T21:24:56.450Z,70.55
2023-05-19T21:27:23.306Z,71.11
2023-05-19T21:29:54.236Z,71.35
2023-05-19T21:32:21.684Z,71.69
2023-05-19T21:34:48.395Z,72.12
2023-05-19T21:37:17.307Z,71.81
2023-05-19T21:39:44.407Z,71.86
2023-05-19T21:42:11.260Z,72.36
2023-05-19T21:44:38.079Z,72.51
2023-05-19T21:47:04.896Z,72.56
2023-05-19T21:49:31.685Z,72.75
2023-05-19T21:51:58.462Z,72.99
2023-05-19T21:54:25.162Z,73.23
2023-05-19T21:56:51.866Z,73.56
2023-05-19T21:59:19.505Z,73.95
2023-05-19T22:01:46.845Z,73.98
2023-05-19T22:04:15.981Z,73.85
2023-05-19T22:06:43.261Z,74.09
2023-05-19T22:09:10.113Z,73.82
2023-05-19T22:11:36.870Z,73.60
2023-05-19T22:14:03.482Z,73.94
2023-05-19T22:16:31.215Z,73.48
2023-05-19T22:18:58.140Z,73.78
2023-05-19T22:21:24.966Z,73.77
2023-05-19T22:23:52.306Z,73.08
2023-05-19T22:26:19.020Z,73.77
2023-05-19T22:28:45.772Z,73.62
2023-05-19T22:31:12.441Z,73.68
2023-05-19T22:33:39.153Z,73.98
2023-05-19T22:36:06.410Z,74.33
2023-05-19T22:38:33.154Z,74.34
2023-05-19T22:40:59.890Z,74.36
2023-05-19T22:43:26.599Z,74.16
2023-05-19T22:45:53.247Z,74.11
2023-05-19T22:48:19.965Z,73.78
2023-05-19T22:50:46.757Z,74.12
2023-05-19T22:53:13.479Z,74.00
2023-05-19T22:55:40.400Z,74.23
2023-05-19T22:58:07.185Z,74.16
2023-05-19T23:00:33.848Z,74.85
2023-05-19T23:03:00.795Z,75.35
2023-05-19T23:05:27.512Z,75.08
2023-05-19T23:07:54.277Z,75.72
2023-05-19T23:10:21.072Z,75.68
2023-05-19T23:12:48.832Z,75.67
2023-05-19T23:15:15.749Z,76.02
2023-05-19T23:17:42.473Z,75.26
2023-05-19T23:20:09.647Z,75.45
2023-05-19T23:22:36.421Z,75.37
2023-05-19T23:25:07.601Z,75.47
2023-05-19T23:27:35.495Z,75.75
2023-05-19T23:30:02.494Z,75.55
2023-05-19T23:32:29.371Z,75.43
2023-05-19T23:34:56.120Z,75.91
2023-05-19T23:37:22.876Z,75.41
2023-05-19T23:39:49.501Z,75.42
2023-05-19T23:42:16.247Z,75.81
2023-05-19T23:44:42.841Z,75.62
2023-05-19T23:47:09.714Z,75.45
2023-05-19T23:49:36.623Z,75.90
2023-05-19T23:52:03.343Z,75.84
2023-05-19T23:54:30.583Z,76.21
2023-05-19T23:56:57.460Z,76.02
2023-05-19T23:59:24.117Z,75.68
